This is the latest recevied weather packets stored in our database for station/object OK1FET-5. If no packets are shown the sender has not sent any weather packets the latest 10 day(s).
| Time | Temp. | Humidity | Pressure | Rain* | Wind** | Luminosity | Snow |
|---|---|---|---|---|---|---|---|
| 1778052614 | 17.22° C | 73% | 1007.3 hPa | - | - | - | - |
| 1778052319 | 17.22° C | 72% | 1007.3 hPa | - | - | - | - |
| 1778052024 | 17.22° C | 72% | 1007.3 hPa | - | - | - | - |
| 1778051730 | 17.22° C | 72% | 1007.3 hPa | - | - | - | - |
| 1778051435 | 17.78° C | 71% | 1007.3 hPa | - | - | - | - |
| 1778051140 | 17.78° C | 70% | 1007.2 hPa | - | - | - | - |
| 1778050845 | 18.33° C | 69% | 1007.2 hPa | - | - | - | - |
| 1778050256 | 17.22° C | 72% | 1007.2 hPa | - | - | - | - |
| 1778049961 | 16.67° C | 72% | 1007.3 hPa | - | - | - | - |
| 1778049666 | 16.67° C | 73% | 1007.2 hPa | - | - | - | - |
| 1778049372 | 16.67° C | 73% | 1007.1 hPa | - | - | - | - |
| 1778049077 | 16.67° C | 73% | 1007.1 hPa | - | - | - | - |
| 1778048782 | 16.67° C | 72% | 1007 hPa | - | - | - | - |
| 1778048488 | 16.67° C | 72% | 1006.9 hPa | - | - | - | - |
| 1778048193 | 16.67° C | 71% | 1007.1 hPa | - | - | - | - |
| 1778047898 | 16.67° C | 72% | 1007.3 hPa | - | - | - | - |
| 1778047604 | 15.56° C | 75% | 1007.4 hPa | - | - | - | - |
| 1778047309 | 15° C | 75% | 1007.4 hPa | - | - | - | - |
| 1778047014 | 15.56° C | 73% | 1007.3 hPa | - | - | - | - |
| 1778046425 | 16.67° C | 70% | 1007.3 hPa | - | - | - | - |
| 1778046130 | 15.56° C | 72% | 1007.3 hPa | - | - | - | - |
| 1778045836 | 15° C | 72% | 1007.2 hPa | - | - | - | - |
| 1778045541 | 15° C | 72% | 1007.1 hPa | - | - | - | - |
| 1778044658 | 13.89° C | 73% | 1007.2 hPa | - | - | - | - |
| 1778044363 | 14.44° C | 72% | 1007 hPa | - | - | - | - |
* Rain since midnight (hover to see other rain measurements)
** Current wind speed in m/s (hover to see current wind gust speed)